Time;durP1;ratioP1;P1;durP2;ratioP2;P2;SDS_P1;SDS_P2;PMS_P1;PMS_P2;Temp;Humidity;BMP_temperature;BMP_pressure;BME280_temperature;BME280_humidity;BME280_pressure;Samples;Min_cycle;Max_cycle;Signal;HPM_P1;HPM_P2
2024/01/02 00:00:39;;;;;;;2.85;1.50;;;6.80;99.80;;;;;;5130518;28;20104;-58
2024/01/02 00:03:04;;;;;;;2.08;1.70;;;6.70;99.80;;;;;;5130228;28;20028;-58
2024/01/02 00:05:30;;;;;;;2.58;1.67;;;6.80;99.80;;;;;;5113136;28;20027;-58
2024/01/02 00:07:55;;;;;;;2.38;1.60;;;6.70;99.80;;;;;;5130649;28;20043;-58
2024/01/02 00:10:22;;;;;;;2.20;1.50;;;6.70;99.80;;;;;;5130950;28;20027;-58
2024/01/02 00:12:47;;;;;;;3.08;1.67;;;6.70;99.80;;;;;;5112503;28;20092;-58
2024/01/02 00:15:13;;;;;;;1.92;1.40;;;6.70;99.80;;;;;;5130561;28;20024;-59
2024/01/02 00:17:38;;;;;;;2.15;1.70;;;6.70;99.80;;;;;;5130362;28;20023;-58
2024/01/02 00:20:05;;;;;;;2.85;1.63;;;6.70;99.80;;;;;;5112357;28;20034;-58
2024/01/02 00:22:30;;;;;;;3.45;1.80;;;6.70;99.80;;;;;;5130349;28;20046;-57
2024/01/02 00:24:56;;;;;;;3.65;1.70;;;6.80;99.80;;;;;;5094893;28;20031;-58
2024/01/02 00:27:22;;;;;;;2.55;1.60;;;6.70;99.80;;;;;;5112086;28;20019;-58
2024/01/02 00:29:47;;;;;;;3.85;1.67;;;6.70;99.80;;;;;;5130299;28;20027;-58
2024/01/02 00:32:13;;;;;;;2.00;1.50;;;6.70;99.70;;;;;;5111984;28;20073;-58
2024/01/02 00:34:38;;;;;;;2.25;1.60;;;6.70;99.80;;;;;;5129971;28;20067;-58
2024/01/02 00:37:05;;;;;;;3.40;1.70;;;6.70;99.70;;;;;;5111920;28;20079;-58
2024/01/02 00:39:31;;;;;;;2.97;1.58;;;6.70;99.70;;;;;;5111718;28;20105;-58
2024/01/02 00:41:56;;;;;;;2.40;1.70;;;6.70;99.70;;;;;;5111515;28;20027;-58
2024/01/02 00:44:22;;;;;;;3.50;1.80;;;6.70;99.70;;;;;;5111609;28;20055;-58
2024/01/02 00:46:48;;;;;;;3.78;1.85;;;6.70;99.70;;;;;;5111772;28;20028;-57
2024/01/02 00:49:13;;;;;;;3.80;1.63;;;6.70;99.70;;;;;;5129787;28;20028;-57
2024/01/02 00:51:39;;;;;;;2.58;1.80;;;6.70;99.70;;;;;;5111720;28;20084;-58
2024/01/02 00:54:04;;;;;;;2.40;1.60;;;6.70;99.70;;;;;;5094525;28;20441;-58
2024/01/02 00:56:30;;;;;;;2.92;1.63;;;6.70;99.70;;;;;;5111449;28;20039;-58
2024/01/02 00:58:55;;;;;;;2.03;1.33;;;6.70;99.60;;;;;;5129475;28;20024;-57
2024/01/02 01:01:21;;;;;;;2.22;1.40;;;6.70;99.60;;;;;;5111291;28;20074;-58
2024/01/02 01:03:47;;;;;;;2.50;1.48;;;6.70;99.60;;;;;;5111003;28;20028;-58
2024/01/02 01:06:12;;;;;;;2.78;1.52;;;6.70;99.60;;;;;;5111338;28;20039;-58
2024/01/02 01:08:38;;;;;;;2.55;1.40;;;6.60;99.50;;;;;;5111237;28;20053;-58
2024/01/02 01:11:03;;;;;;;1.73;1.33;;;6.70;99.50;;;;;;5128915;28;20028;-58
2024/01/02 01:13:29;;;;;;;1.98;1.40;;;6.70;99.50;;;;;;5129428;28;20508;-58
2024/01/02 01:15:54;;;;;;;2.53;1.88;;;6.70;99.50;;;;;;5129274;28;20039;-58
2024/01/02 01:18:20;;;;;;;2.72;1.42;;;6.70;99.40;;;;;;5129333;28;20023;-58
2024/01/02 01:20:46;;;;;;;2.22;1.65;;;6.70;99.40;;;;;;5129134;28;20051;-58
2024/01/02 01:23:11;;;;;;;2.40;1.40;;;6.70;99.40;;;;;;5129057;28;20050;-58
2024/01/02 01:25:37;;;;;;;2.50;1.48;;;6.70;99.40;;;;;;5111024;28;20514;-58
2024/01/02 01:28:03;;;;;;;2.42;1.50;;;6.70;99.30;;;;;;5110897;28;20024;-58
2024/01/02 01:30:29;;;;;;;1.90;1.40;;;6.70;99.30;;;;;;5128900;28;20031;-56
2024/01/02 01:32:55;;;;;;;1.92;1.40;;;6.70;99.30;;;;;;5110897;28;20540;-58
2024/01/02 01:35:20;;;;;;;1.63;1.40;;;6.70;99.30;;;;;;5110579;28;20038;-58
2024/01/02 01:37:46;;;;;;;1.98;1.30;;;6.70;99.30;;;;;;5093541;28;20383;-58
2024/01/02 01:40:11;;;;;;;2.65;1.50;;;6.70;99.30;;;;;;5110630;28;20027;-58
2024/01/02 01:42:37;;;;;;;1.85;1.33;;;6.70;99.30;;;;;;5110396;28;20522;-57
2024/01/02 01:45:03;;;;;;;2.58;1.30;;;6.70;99.30;;;;;;5110515;28;20050;-58
2024/01/02 01:47:29;;;;;;;2.63;1.42;;;6.70;99.30;;;;;;5110397;28;20020;-57
2024/01/02 01:49:54;;;;;;;3.05;1.40;;;6.70;99.30;;;;;;5110443;28;20157;-58
2024/01/02 01:52:20;;;;;;;1.75;1.30;;;6.70;99.30;;;;;;5110516;28;20049;-58
2024/01/02 01:54:45;;;;;;;1.95;1.33;;;6.70;99.30;;;;;;5110301;28;20042;-58
2024/01/02 01:57:13;;;;;;;3.03;1.40;;;6.70;99.30;;;;;;5093278;28;20036;-57
2024/01/02 01:59:38;;;;;;;1.92;1.23;;;6.70;99.30;;;;;;5110604;28;20035;-58
2024/01/02 02:02:04;;;;;;;2.35;1.42;;;6.70;99.30;;;;;;5110163;28;20067;-58
2024/01/02 02:04:30;;;;;;;3.50;1.30;;;6.70;99.20;;;;;;5110264;28;20053;-58
2024/01/02 02:06:55;;;;;;;2.47;1.45;;;6.70;99.30;;;;;;5110088;28;20034;-58
2024/01/02 02:09:21;;;;;;;2.53;1.40;;;6.70;99.20;;;;;;5109655;28;20031;-58
2024/01/02 02:11:47;;;;;;;2.75;1.38;;;6.70;99.20;;;;;;5110232;28;20467;-58
2024/01/02 02:14:12;;;;;;;1.90;1.33;;;6.70;99.20;;;;;;5109898;28;20058;-58
2024/01/02 02:16:42;;;;;;;3.03;1.30;;;6.70;99.20;;;;;;5109773;28;20035;-58
2024/01/02 02:19:07;;;;;;;3.22;1.60;;;6.70;99.30;;;;;;5109888;28;20032;-58
2024/01/02 02:21:33;;;;;;;1.95;1.23;;;6.70;99.20;;;;;;5127143;28;20031;-58
2024/01/02 02:24:00;;;;;;;2.60;1.60;;;6.70;99.20;;;;;;5109556;28;20034;-58
2024/01/02 02:26:25;;;;;;;2.10;1.17;;;6.70;99.20;;;;;;5127946;28;20030;-58
2024/01/02 02:28:51;;;;;;;2.45;1.50;;;6.70;99.20;;;;;;5127906;28;20023;-57
2024/01/02 02:31:19;;;;;;;2.05;1.20;;;6.70;99.20;;;;;;5127721;28;20027;-58
2024/01/02 02:33:45;;;;;;;1.88;1.38;;;6.70;99.20;;;;;;5092304;28;20027;-57
2024/01/02 02:36:11;;;;;;;1.58;1.27;;;6.70;99.20;;;;;;5143636;27;20070;-58
2024/01/02 02:38:36;;;;;;;1.73;1.17;;;6.70;99.30;;;;;;5127772;28;20057;-58
2024/01/02 02:41:02;;;;;;;3.30;1.20;;;6.70;99.20;;;;;;5127734;28;20019;-58
2024/01/02 02:43:28;;;;;;;2.33;1.30;;;6.70;99.20;;;;;;5108907;28;20054;-57
2024/01/02 02:45:53;;;;;;;4.75;1.50;;;6.70;99.20;;;;;;5109477;28;20024;-58
2024/01/02 02:48:19;;;;;;;3.08;1.15;;;6.70;99.20;;;;;;5127460;28;20035;-58
2024/01/02 02:50:44;;;;;;;1.73;1.23;;;6.70;99.10;;;;;;5109297;28;20061;-58
2024/01/02 02:53:10;;;;;;;1.85;1.30;;;6.70;99.10;;;;;;5109164;28;20027;-58
2024/01/02 02:55:35;;;;;;;3.83;1.45;;;6.70;99.10;;;;;;5109143;28;20038;-58
2024/01/02 02:58:01;;;;;;;3.13;1.40;;;6.70;99.10;;;;;;5127233;28;20031;-58
2024/01/02 03:00:26;;;;;;;2.72;1.40;;;6.70;99.10;;;;;;5127224;28;20038;-58
2024/01/02 03:02:52;;;;;;;2.30;1.25;;;6.70;99.00;;;;;;5127164;28;20028;-58
2024/01/02 03:05:18;;;;;;;1.90;1.30;;;6.70;99.30;;;;;;5108973;28;20028;-58
2024/01/02 03:07:43;;;;;;;2.65;1.30;;;6.70;99.00;;;;;;5108825;28;20080;-58
2024/01/02 03:10:11;;;;;;;1.95;1.50;;;6.70;99.00;;;;;;5108818;28;20028;-56
2024/01/02 03:12:37;;;;;;;2.13;1.55;;;6.70;99.00;;;;;;5127279;28;20015;-58
2024/01/02 03:15:03;;;;;;;1.20;1.10;;;6.70;99.00;;;;;;5108839;28;20066;-58
2024/01/02 03:17:28;;;;;;;2.55;1.30;;;6.70;99.00;;;;;;5126854;28;20026;-58
2024/01/02 03:19:54;;;;;;;1.83;1.52;;;6.70;99.00;;;;;;5108740;28;20057;-57
2024/01/02 03:22:20;;;;;;;1.88;1.45;;;6.70;98.90;;;;;;5126930;28;20024;-58
2024/01/02 03:24:45;;;;;;;2.55;1.17;;;6.70;98.90;;;;;;5091683;28;20031;-58
2024/01/02 03:27:11;;;;;;;2.92;1.20;;;6.70;98.90;;;;;;5126931;28;20027;-58
2024/01/02 03:29:36;;;;;;;1.67;1.00;;;6.80;98.90;;;;;;5091892;28;20110;-57
2024/01/02 03:32:02;;;;;;;1.83;1.15;;;6.70;98.90;;;;;;5108692;28;20027;-58
2024/01/02 03:34:28;;;;;;;2.85;1.40;;;6.70;98.90;;;;;;5126509;28;20047;-58
2024/01/02 03:36:54;;;;;;;3.28;1.30;;;6.70;98.90;;;;;;5126685;28;20049;-58
2024/01/02 03:39:20;;;;;;;2.30;1.20;;;6.70;98.90;;;;;;5108529;28;20054;-58
2024/01/02 03:41:45;;;;;;;1.38;1.10;;;6.70;98.80;;;;;;5125594;28;20028;-58
2024/01/02 03:44:11;;;;;;;2.25;1.20;;;6.70;98.90;;;;;;5126883;28;20032;-58
2024/01/02 03:46:37;;;;;;;2.30;1.05;;;6.80;98.90;;;;;;5108702;28;20028;-58
2024/01/02 03:49:02;;;;;;;1.48;1.10;;;6.70;98.80;;;;;;5108473;28;20028;-58
2024/01/02 03:51:28;;;;;;;2.45;1.25;;;6.70;98.80;;;;;;5126738;28;20404;-58
2024/01/02 03:53:53;;;;;;;1.98;0.98;;;6.70;98.80;;;;;;5108436;28;20050;-58
2024/01/02 03:56:19;;;;;;;2.10;1.10;;;6.80;98.80;;;;;;5108433;28;20395;-58
2024/01/02 03:58:44;;;;;;;2.08;1.20;;;6.80;98.80;;;;;;5108527;28;20087;-58
2024/01/02 04:01:10;;;;;;;2.60;1.25;;;6.80;98.80;;;;;;5108707;28;20043;-57
2024/01/02 04:03:36;;;;;;;3.05;1.10;;;6.80;98.80;;;;;;5108181;28;20062;-58
2024/01/02 04:06:01;;;;;;;1.70;1.40;;;6.80;98.80;;;;;;5126553;28;20023;-58
2024/01/02 04:08:27;;;;;;;2.17;1.20;;;6.80;98.80;;;;;;5126481;28;20027;-58
2024/01/02 04:10:52;;;;;;;2.03;1.33;;;6.80;98.80;;;;;;5126600;28;20065;-57
2024/01/02 04:13:18;;;;;;;1.58;1.10;;;6.80;98.70;;;;;;5126576;28;20028;-57
2024/01/02 04:15:44;;;;;;;2.05;1.08;;;6.80;98.70;;;;;;5108649;28;20032;-58
2024/01/02 04:18:09;;;;;;;1.98;0.90;;;6.80;98.70;;;;;;5108224;28;20024;-58
2024/01/02 04:20:35;;;;;;;2.00;0.98;;;6.80;98.70;;;;;;5091104;28;20031;-58
2024/01/02 04:23:00;;;;;;;3.55;1.25;;;6.80;98.70;;;;;;5126314;28;20028;-58
2024/01/02 04:25:26;;;;;;;2.30;1.15;;;6.80;98.70;;;;;;5107949;28;20024;-58
2024/01/02 04:27:53;;;;;;;1.98;1.00;;;6.80;98.70;;;;;;5108192;28;20023;-58
2024/01/02 04:30:19;;;;;;;2.35;1.25;;;6.80;98.70;;;;;;5091259;28;20024;-58
2024/01/02 04:32:44;;;;;;;2.55;1.00;;;6.80;98.70;;;;;;5126171;28;20123;-58
2024/01/02 04:35:10;;;;;;;1.25;0.90;;;6.80;98.70;;;;;;5108018;28;20039;-58
2024/01/02 04:37:35;;;;;;;1.45;1.15;;;6.80;98.70;;;;;;5107863;28;20110;-58
2024/01/02 04:40:01;;;;;;;1.00;0.90;;;6.90;98.70;;;;;;5126569;28;20127;-58
2024/01/02 04:42:26;;;;;;;1.73;1.10;;;6.80;98.70;;;;;;5107982;28;20027;-58
2024/01/02 04:44:52;;;;;;;1.50;1.15;;;6.80;98.60;;;;;;5126506;28;20055;-58
2024/01/02 04:47:18;;;;;;;1.67;1.02;;;6.80;98.60;;;;;;5129882;28;20051;-58
2024/01/02 04:49:43;;;;;;;1.10;0.95;;;6.80;98.60;;;;;;5094540;28;20464;-58
2024/01/02 04:52:09;;;;;;;2.72;1.05;;;6.90;98.70;;;;;;5129833;28;20073;-58
2024/01/02 04:54:34;;;;;;;2.00;1.10;;;6.90;98.70;;;;;;5129994;28;20036;-58
2024/01/02 04:57:00;;;;;;;1.38;1.00;;;6.80;98.70;;;;;;5111597;28;20032;-58
2024/01/02 04:59:25;;;;;;;1.38;0.90;;;6.80;98.70;;;;;;5129505;28;20028;-58
2024/01/02 05:01:51;;;;;;;1.50;1.02;;;6.90;98.70;;;;;;5129696;28;20027;-57
2024/01/02 05:04:17;;;;;;;1.58;0.95;;;6.80;98.60;;;;;;5111241;28;20101;-58
2024/01/02 05:06:42;;;;;;;2.25;1.00;;;6.90;98.60;;;;;;5129514;28;20028;-58
2024/01/02 05:09:11;;;;;;;2.45;1.30;;;6.80;98.60;;;;;;5111198;28;20030;-58
2024/01/02 05:11:37;;;;;;;1.15;0.80;;;6.90;98.60;;;;;;5129319;28;20032;-58
2024/01/02 05:14:03;;;;;;;1.83;1.15;;;6.90;98.90;;;;;;5111071;28;20057;-58
2024/01/02 05:16:28;;;;;;;1.20;0.95;;;6.90;98.60;;;;;;5129435;28;20036;-57
2024/01/02 05:18:54;;;;;;;1.85;0.80;;;6.90;98.60;;;;;;5129386;28;20030;-58
2024/01/02 05:21:20;;;;;;;1.13;0.98;;;6.90;98.60;;;;;;5110896;28;20053;-58
2024/01/02 05:23:45;;;;;;;1.15;0.95;;;6.90;98.60;;;;;;5129131;28;20039;-58
2024/01/02 05:26:11;;;;;;;0.98;0.80;;;6.90;98.50;;;;;;5110879;28;20023;-58
2024/01/02 05:28:36;;;;;;;1.75;1.10;;;6.90;98.50;;;;;;5111059;28;20019;-58
2024/01/02 05:31:02;;;;;;;2.10;1.00;;;6.90;98.50;;;;;;5128947;28;20050;-58
2024/01/02 05:33:28;;;;;;;1.45;1.00;;;6.90;98.50;;;;;;5127716;27;20038;-58
2024/01/02 05:35:53;;;;;;;1.40;1.00;;;6.90;98.50;;;;;;5110642;28;20032;-58
2024/01/02 05:38:19;;;;;;;2.08;1.17;;;6.90;98.40;;;;;;5128917;28;20106;-58
2024/01/02 05:40:44;;;;;;;1.33;1.00;;;6.90;98.50;;;;;;5110707;28;20024;-58
2024/01/02 05:43:10;;;;;;;1.60;1.08;;;6.90;98.50;;;;;;5128669;28;20102;-58
2024/01/02 05:45:36;;;;;;;1.00;0.68;;;6.90;98.50;;;;;;5128869;28;20031;-58
2024/01/02 05:48:02;;;;;;;1.13;0.80;;;6.90;98.50;;;;;;5110521;28;20030;-58
2024/01/02 05:50:29;;;;;;;1.83;1.00;;;6.90;98.40;;;;;;5110543;28;20039;-58
2024/01/02 05:52:54;;;;;;;0.90;0.73;;;6.90;98.50;;;;;;5110527;28;20020;-58
2024/01/02 05:55:20;;;;;;;2.33;1.00;;;6.90;98.50;;;;;;5144404;27;20034;-58
2024/01/02 05:57:45;;;;;;;1.40;0.90;;;6.90;98.40;;;;;;5129053;28;20055;-59
2024/01/02 06:00:11;;;;;;;0.80;0.80;;;6.90;98.40;;;;;;5110341;28;20027;-58
2024/01/02 06:02:37;;;;;;;1.83;0.90;;;6.90;98.30;;;;;;5110125;28;20506;-58
2024/01/02 06:05:04;;;;;;;2.08;1.00;;;6.90;98.40;;;;;;5128402;28;20028;-58
2024/01/02 06:07:29;;;;;;;1.17;0.80;;;6.90;98.40;;;;;;5110191;28;20072;-58
2024/01/02 06:09:55;;;;;;;1.20;0.90;;;6.90;98.40;;;;;;5110203;28;20032;-58
2024/01/02 06:12:21;;;;;;;1.55;1.10;;;6.90;98.40;;;;;;5128277;28;20023;-58
2024/01/02 06:14:46;;;;;;;1.13;0.75;;;7.00;98.40;;;;;;5109996;28;20091;-58
2024/01/02 06:17:12;;;;;;;0.73;0.60;;;6.90;98.40;;;;;;5110007;28;20087;-59
2024/01/02 06:19:37;;;;;;;0.90;0.82;;;6.90;98.40;;;;;;5110031;28;20027;-58
2024/01/02 06:22:03;;;;;;;1.73;0.90;;;7.00;98.30;;;;;;5128150;28;20028;-58
2024/01/02 06:24:29;;;;;;;1.23;1.00;;;7.00;98.30;;;;;;5109718;28;20076;-58
2024/01/02 06:26:54;;;;;;;1.20;1.00;;;7.00;98.30;;;;;;5127981;28;20453;-58
2024/01/02 06:29:21;;;;;;;1.60;1.00;;;7.00;98.20;;;;;;5109558;28;20030;-57
2024/01/02 06:31:46;;;;;;;1.40;0.90;;;7.00;98.30;;;;;;5109589;28;20043;-58
2024/01/02 06:34:12;;;;;;;1.10;0.80;;;7.00;98.30;;;;;;5127621;28;20034;-58
2024/01/02 06:36:38;;;;;;;1.15;0.80;;;7.00;98.30;;;;;;5109506;28;20039;-58
2024/01/02 06:39:04;;;;;;;0.80;0.65;;;7.00;98.40;;;;;;5127631;28;20042;-58
2024/01/02 06:41:29;;;;;;;1.05;0.70;;;7.00;98.40;;;;;;5109552;28;20090;-58
2024/01/02 06:43:55;;;;;;;2.28;1.15;;;7.00;98.40;;;;;;5109306;28;20035;-58
2024/01/02 06:46:20;;;;;;;0.80;0.75;;;7.00;98.40;;;;;;5109083;28;20102;-58
2024/01/02 06:48:46;;;;;;;1.30;0.82;;;7.00;98.40;;;;;;5109526;28;20027;-57
2024/01/02 06:51:12;;;;;;;1.52;0.90;;;7.00;98.40;;;;;;5126388;28;20054;-58
2024/01/02 06:53:37;;;;;;;1.08;0.98;;;7.00;98.40;;;;;;5127384;28;20043;-58
2024/01/02 06:56:03;;;;;;;0.60;0.60;;;7.00;98.40;;;;;;5095825;28;20031;-58
2024/01/02 06:58:28;;;;;;;1.30;0.82;;;7.00;98.40;;;;;;5089673;28;20043;-58
2024/01/02 07:00:54;;;;;;;1.23;0.85;;;7.00;98.50;;;;;;5106282;28;20031;-58
2024/01/02 07:03:21;;;;;;;1.60;1.00;;;7.00;98.60;;;;;;5105219;28;20106;-58
2024/01/02 07:05:47;;;;;;;1.33;0.70;;;7.00;98.60;;;;;;5105756;28;20438;-57
2024/01/02 07:08:12;;;;;;;0.90;0.70;;;7.10;98.60;;;;;;5103111;28;20028;-58
2024/01/02 07:10:38;;;;;;;1.10;0.70;;;7.10;98.70;;;;;;5103341;28;20020;-58
2024/01/02 07:13:04;;;;;;;1.25;0.90;;;7.10;98.70;;;;;;5104862;28;20109;-58
2024/01/02 07:15:29;;;;;;;0.90;0.77;;;7.10;98.70;;;;;;5103368;28;20025;-58
2024/01/02 07:17:55;;;;;;;1.48;0.90;;;7.10;98.80;;;;;;5103531;28;20012;-58
2024/01/02 07:20:20;;;;;;;1.25;0.80;;;7.10;98.70;;;;;;5086896;28;20020;-58
2024/01/02 07:22:48;;;;;;;1.02;0.80;;;7.10;98.80;;;;;;5087652;28;20049;-57
2024/01/02 07:25:14;;;;;;;1.02;0.93;;;7.10;99.00;;;;;;5088741;28;20024;-58
2024/01/02 07:27:39;;;;;;;0.95;0.70;;;7.10;99.10;;;;;;5106533;28;20030;-58
2024/01/02 07:30:05;;;;;;;1.33;0.68;;;7.10;99.10;;;;;;5088360;28;20055;-58
2024/01/02 07:32:31;;;;;;;1.00;0.70;;;7.10;99.20;;;;;;5105093;28;20081;-57
2024/01/02 07:34:56;;;;;;;1.15;0.60;;;7.10;99.30;;;;;;5106288;28;20040;-58
2024/01/02 07:37:22;;;;;;;0.93;0.63;;;7.10;99.30;;;;;;5105179;28;20031;-58
2024/01/02 07:39:50;;;;;;;1.20;0.80;;;7.10;99.40;;;;;;5106300;28;20035;-58
2024/01/02 07:42:16;;;;;;;0.50;0.50;;;7.10;99.40;;;;;;5105078;28;20036;-58
2024/01/02 07:44:41;;;;;;;0.57;0.40;;;7.10;99.50;;;;;;5106375;28;20115;-58
2024/01/02 07:47:07;;;;;;;1.17;0.80;;;7.10;99.50;;;;;;5105182;28;20024;-58
2024/01/02 07:49:33;;;;;;;2.47;0.88;;;7.10;99.50;;;;;;5105143;28;20024;-58
2024/01/02 07:51:58;;;;;;;1.50;0.50;;;7.10;99.50;;;;;;5104956;28;20050;-58
2024/01/02 07:54:24;;;;;;;0.85;0.75;;;7.10;99.60;;;;;;5106920;28;20111;-57
2024/01/02 07:56:50;;;;;;;0.60;0.60;;;7.20;99.70;;;;;;5105024;28;20052;-58
2024/01/02 07:59:19;;;;;;;1.42;0.90;;;7.20;99.70;;;;;;5104926;28;20058;-58
2024/01/02 08:01:46;;;;;;;1.05;0.70;;;7.20;99.90;;;;;;5105048;28;20031;-58
2024/01/02 08:04:12;;;;;;;1.25;0.90;;;7.20;99.90;;;;;;5106286;28;20084;-58
2024/01/02 08:06:37;;;;;;;0.77;0.70;;;7.20;99.90;;;;;;5106133;28;20028;-58
2024/01/02 08:09:03;;;;;;;0.80;0.55;;;7.20;99.90;;;;;;5105954;28;20024;-58
2024/01/02 08:11:28;;;;;;;0.68;0.63;;;7.20;99.90;;;;;;5106123;28;20036;-58
2024/01/02 08:13:54;;;;;;;0.75;0.68;;;7.20;99.90;;;;;;5104949;28;20032;-58
2024/01/02 08:16:20;;;;;;;1.48;1.00;;;7.20;99.90;;;;;;5106210;28;20024;-59
2024/01/02 08:18:45;;;;;;;0.63;0.63;;;7.20;99.90;;;;;;5104794;28;20043;-58
2024/01/02 08:21:11;;;;;;;1.08;0.63;;;7.20;99.90;;;;;;5109059;28;20047;-58
2024/01/02 08:23:38;;;;;;;0.95;0.73;;;7.20;99.90;;;;;;5108804;28;20028;-58
2024/01/02 08:26:06;;;;;;;0.68;0.60;;;7.30;99.90;;;;;;5108831;28;20087;-59
2024/01/02 08:28:32;;;;;;;0.73;0.60;;;7.30;99.90;;;;;;5108508;28;20057;-58
2024/01/02 08:30:57;;;;;;;0.80;0.70;;;7.30;99.90;;;;;;5108576;28;20503;-57
2024/01/02 08:33:23;;;;;;;1.13;0.70;;;7.30;99.90;;;;;;5108603;28;20020;-58
2024/01/02 08:35:48;;;;;;;1.17;0.55;;;7.30;99.90;;;;;;5108391;28;20031;-58
2024/01/02 08:38:14;;;;;;;0.70;0.70;;;7.30;99.90;;;;;;5108595;28;20024;-57
2024/01/02 08:40:40;;;;;;;2.22;0.68;;;7.30;99.90;;;;;;5109683;28;20071;-58
2024/01/02 08:43:06;;;;;;;0.77;0.70;;;7.30;99.90;;;;;;5109369;28;20447;-58
2024/01/02 08:45:31;;;;;;;0.45;0.43;;;7.30;99.90;;;;;;5109616;28;20032;-58
2024/01/02 08:47:57;;;;;;;1.08;0.70;;;7.40;99.90;;;;;;5108174;28;20475;-58
2024/01/02 08:50:23;;;;;;;0.85;0.50;;;7.40;99.90;;;;;;5109462;28;20024;-58
2024/01/02 08:52:49;;;;;;;0.85;0.50;;;7.40;99.90;;;;;;5109191;28;20032;-58
2024/01/02 08:55:15;;;;;;;1.33;0.60;;;7.40;99.90;;;;;;5109278;28;20032;-58
2024/01/02 08:57:40;;;;;;;0.95;0.52;;;7.40;99.90;;;;;;5091095;28;20118;-57
2024/01/02 09:00:07;;;;;;;0.82;0.70;;;7.40;99.90;;;;;;5108023;28;20028;-58
2024/01/02 09:02:33;;;;;;;0.50;0.50;;;7.40;99.90;;;;;;5090876;28;20111;-58
2024/01/02 09:04:58;;;;;;;1.20;0.60;;;7.40;99.90;;;;;;5108842;28;20039;-58
2024/01/02 09:07:24;;;;;;;1.02;0.68;;;7.40;99.90;;;;;;5109419;28;20115;-58
2024/01/02 09:09:50;;;;;;;1.77;0.70;;;7.50;99.90;;;;;;5093190;28;20031;-58
2024/01/02 09:12:15;;;;;;;1.00;0.50;;;7.40;99.90;;;;;;5100222;28;20069;-58
2024/01/02 09:14:41;;;;;;;1.15;0.50;;;7.50;99.90;;;;;;5098867;28;20072;-58
2024/01/02 09:17:06;;;;;;;1.73;0.70;;;7.50;99.90;;;;;;5097275;28;20028;-58
2024/01/02 09:19:32;;;;;;;3.13;0.90;;;7.50;99.90;;;;;;5110774;27;20377;-58
2024/01/02 09:21:58;;;;;;;7.07;1.20;;;7.50;99.90;;;;;;5079158;28;20063;-58
2024/01/02 09:24:23;;;;;;;8.05;1.25;;;7.50;99.90;;;;;;5088049;28;20032;-58
2024/01/02 09:26:51;;;;;;;5.35;1.13;;;7.60;99.90;;;;;;5088150;28;20035;-58
2024/01/02 09:29:17;;;;;;;10.82;1.45;;;7.60;99.90;;;;;;5086659;28;20032;-58
2024/01/02 09:31:43;;;;;;;7.22;1.00;;;7.60;99.90;;;;;;5105759;28;20119;-58
2024/01/02 09:34:12;;;;;;;11.55;1.20;;;7.60;99.90;;;;;;5093908;28;20035;-58
2024/01/02 09:36:38;;;;;;;16.67;2.22;;;7.60;99.90;;;;;;5092147;28;20036;-58
2024/01/02 09:39:04;;;;;;;17.75;2.35;;;7.70;99.90;;;;;;5095966;28;20025;-57
2024/01/02 09:41:42;;;;;;;51.55;3.63;;;7.70;99.90;;;;;;5089285;28;20032;-58
2024/01/02 09:44:24;;;;;;;22.17;4.00;;;7.80;99.90;;;;;;5101981;28;20077;-58
2024/01/02 09:47:07;;;;;;;39.30;4.05;;;7.80;99.90;;;;;;5112384;28;20024;-58
2024/01/02 09:50:17;;;;;;;39.15;4.40;;;7.80;99.90;;;;;;5100948;28;20088;-56
2024/01/02 09:53:23;;;;;;;44.47;4.22;;;7.90;99.90;;;;;;5094216;28;20082;-57
2024/01/02 09:55:51;;;;;;;44.92;4.22;;;7.90;99.90;;;;;;5065905;28;20482;-58
2024/01/02 09:58:30;;;;;;;45.60;4.60;;;7.90;99.90;;;;;;5089991;28;20031;-58
2024/01/02 10:01:10;;;;;;;36.22;4.50;;;8.00;99.90;;;;;;5089576;28;20042;-57
2024/01/02 10:03:42;;;;;;;57.55;6.13;;;8.00;99.90;;;;;;5097233;28;20056;-58
2024/01/02 10:06:25;;;;;;;51.53;5.18;;;8.00;99.90;;;;;;5092516;28;20039;-58
2024/01/02 10:09:19;;;;;;;185.85;18.83;;;8.00;99.90;;;;;;5094861;28;20047;-58
2024/01/02 10:11:57;;;;;;;182.23;15.27;;;8.10;99.90;;;;;;5068887;28;20057;-58
2024/01/02 10:14:22;;;;;;;152.50;12.93;;;8.10;99.90;;;;;;5087385;28;20036;-59
2024/01/02 10:17:23;;;;;;;92.00;9.05;;;8.10;99.90;;;;;;5097917;28;20036;-58
2024/01/02 10:20:04;;;;;;;90.22;9.73;;;8.20;99.90;;;;;;5092834;28;20104;-58
2024/01/02 10:22:56;;;;;;;97.90;10.00;;;8.20;99.90;;;;;;5108345;28;20032;-58
2024/01/02 10:25:21;;;;;;;91.50;8.50;;;8.20;99.90;;;;;;5103327;27;20028;-58
2024/01/02 10:28:05;;;;;;;84.55;9.48;;;8.30;99.90;;;;;;5079703;28;20032;-58
2024/01/02 10:30:38;;;;;;;93.82;8.30;;;8.30;99.90;;;;;;5099061;28;20032;-58
2024/01/02 10:33:22;;;;;;;120.03;10.35;;;8.30;99.90;;;;;;5118231;28;20032;-58
2024/01/02 10:35:52;;;;;;;145.85;11.73;;;8.40;99.90;;;;;;5098541;28;20038;-58
2024/01/02 10:38:26;;;;;;;198.45;15.75;;;8.40;99.90;;;;;;5102559;28;20123;-58
2024/01/02 10:41:06;;;;;;;141.23;11.98;;;8.50;99.90;;;;;;5106100;27;20042;-50
2024/01/02 10:43:42;;;;;;;137.10;11.00;;;8.50;99.90;;;;;;5098543;28;20092;-50
2024/01/02 10:46:17;;;;;;;132.20;13.13;;;8.60;99.90;;;;;;5090268;28;20051;-49
2024/01/02 10:48:45;;;;;;;111.53;11.18;;;8.60;99.90;;;;;;5109899;28;20020;-50
2024/01/02 10:51:21;;;;;;;144.45;15.13;;;8.70;99.90;;;;;;5080878;28;20077;-50
2024/01/02 10:54:28;;;;;;;116.53;12.10;;;8.70;99.90;;;;;;5104404;28;20180;-49
2024/01/02 10:56:58;;;;;;;162.43;15.88;;;8.70;99.90;;;;;;5090557;28;20048;-50
2024/01/02 11:00:09;;;;;;;212.52;18.58;;;8.80;99.90;;;;;;5092835;28;20062;-50
2024/01/02 11:02:35;;;;;;;180.57;16.60;;;8.80;99.90;;;;;;5087476;28;20116;-50
2024/01/02 11:05:19;;;;;;;146.73;16.42;;;8.90;99.90;;;;;;5113182;28;20080;-50
2024/01/02 11:07:49;;;;;;;150.50;15.30;;;8.90;99.90;;;;;;5092918;28;20027;-50
2024/01/02 11:10:16;;;;;;;146.30;14.88;;;8.90;99.90;;;;;;5087605;28;20068;-49
2024/01/02 11:12:53;;;;;;;141.98;14.85;;;8.90;99.90;;;;;;5093259;28;20016;-50
2024/01/02 11:15:19;;;;;;;130.23;11.88;;;8.90;99.90;;;;;;5094366;28;20032;-50
2024/01/02 11:17:45;;;;;;;136.90;12.13;;;9.00;99.90;;;;;;5085086;28;20058;-50
2024/01/02 11:20:13;;;;;;;144.48;13.35;;;9.00;99.90;;;;;;5104876;28;20376;-50
2024/01/02 11:22:47;;;;;;;151.75;14.07;;;9.00;99.90;;;;;;5092365;28;20032;-50
2024/01/02 11:25:14;;;;;;;164.80;14.80;;;9.00;99.90;;;;;;5099491;28;20037;-50
2024/01/02 11:27:40;;;;;;;163.00;14.50;;;9.10;99.90;;;;;;5087561;28;20028;-50
2024/01/02 11:30:07;;;;;;;181.98;16.95;;;9.10;99.90;;;;;;5094311;28;20036;-50
2024/01/02 11:33:05;;;;;;;121.53;12.23;;;9.10;99.90;;;;;;5070136;28;20027;-50
2024/01/02 11:35:36;;;;;;;134.80;13.75;;;9.10;99.90;;;;;;5084278;28;20051;-51
2024/01/02 11:38:11;;;;;;;114.50;14.07;;;9.10;99.90;;;;;;5069872;28;20019;-50
2024/01/02 11:40:56;;;;;;;115.93;12.32;;;9.20;99.90;;;;;;5111152;28;20058;-50
2024/01/02 11:43:32;;;;;;;111.22;13.30;;;9.20;99.90;;;;;;5084767;28;20065;-50
2024/01/02 11:45:58;;;;;;;112.63;11.48;;;9.20;99.90;;;;;;5110882;28;20021;-50
2024/01/02 11:48:36;;;;;;;115.78;13.27;;;9.20;99.90;;;;;;5092807;28;20107;-50
2024/01/02 11:51:19;;;;;;;110.78;11.00;;;9.20;99.90;;;;;;5090355;28;20035;-50
2024/01/02 11:54:06;;;;;;;81.15;10.38;;;9.20;99.90;;;;;;5118562;28;20024;-50
2024/01/02 11:56:33;;;;;;;158.20;16.13;;;9.20;99.90;;;;;;5107781;28;20028;-50
2024/01/02 11:59:24;;;;;;;142.25;13.95;;;9.20;99.90;;;;;;5080583;28;20028;-50
2024/01/02 12:02:01;;;;;;;99.55;11.10;;;9.30;99.90;;;;;;5108807;28;20042;-50
2024/01/02 12:04:54;;;;;;;107.85;11.60;;;9.30;99.90;;;;;;5102546;28;20047;-50
2024/01/02 12:07:26;;;;;;;180.73;15.60;;;9.30;99.90;;;;;;5089304;28;20036;-50
2024/01/02 12:09:52;;;;;;;141.13;13.85;;;9.30;99.90;;;;;;5087980;28;20025;-50
2024/01/02 12:12:41;;;;;;;133.40;13.15;;;9.30;99.90;;;;;;5104838;28;20036;-50
2024/01/02 12:15:23;;;;;;;95.43;9.85;;;9.30;99.90;;;;;;5107590;28;20051;-50
2024/01/02 12:18:04;;;;;;;111.18;12.07;;;9.40;99.90;;;;;;5089371;28;20028;-50
2024/01/02 12:21:04;;;;;;;122.03;11.60;;;9.40;99.90;;;;;;5075385;28;20036;-51
2024/01/02 12:23:32;;;;;;;108.38;12.07;;;9.40;99.90;;;;;;5086230;28;20047;-49
2024/01/02 12:26:04;;;;;;;252.18;22.13;;;9.50;99.90;;;;;;5109563;28;20024;-50
2024/01/02 12:28:32;;;;;;;301.50;27.25;;;9.50;99.90;;;;;;5120395;28;20103;-50
2024/01/02 12:31:18;;;;;;;189.52;14.90;;;9.50;99.90;;;;;;5119773;28;20038;-50
2024/01/02 12:33:46;;;;;;;123.95;12.25;;;9.50;99.90;;;;;;5104405;28;20020;-50
2024/01/02 12:36:21;;;;;;;118.90;11.55;;;9.50;99.90;;;;;;5090321;28;20032;-50
2024/01/02 12:38:51;;;;;;;116.55;12.68;;;9.50;99.90;;;;;;5090584;28;20158;-50
2024/01/02 12:41:26;;;;;;;126.20;13.30;;;9.50;99.90;;;;;;5073367;28;20043;-49
2024/01/02 12:44:03;;;;;;;107.88;11.77;;;9.50;99.90;;;;;;5102410;28;20040;-50
2024/01/02 12:46:51;;;;;;;125.50;13.77;;;9.60;99.90;;;;;;5103932;28;20036;-50
2024/01/02 12:49:26;;;;;;;123.70;13.30;;;9.60;99.90;;;;;;5108716;28;20036;-49
2024/01/02 12:51:52;;;;;;;137.15;15.40;;;9.60;99.90;;;;;;5075763;28;20050;-50
2024/01/02 12:54:19;;;;;;;134.50;14.43;;;9.60;99.90;;;;;;5107252;28;20035;-50
2024/01/02 12:56:54;;;;;;;113.50;11.02;;;9.60;99.90;;;;;;5090135;28;20457;-50